Campanya meteocatpedra

Dades de l'estació automàtica Tírvia

?
?
Resum diari 22:00 TU
Dades diàries de l'estació meteorològica
Temperatura mitjana 16.5 °C
Temperatura màxima 25.8 °C 12:01 TU
Temperatura mínima 10.9 °C 4:57 TU
Humitat relativa mitjana 68%
Precipitació acumulada 4.7 mm
Ratxa màxima del vent (6 m) 40.7 km/h - 297º 16:45 TU
Pressió atmosfèrica mitjana 1012.8 hPa

El tram horari està expressat en Temps Universal (TU). Cal sumar una hora en horari d'hivern i dues en horari d'estiu per passar a l'hora oficial.

Tírvia

Metadades estació meteorol´gica
Municipi Tírvia
Comarca Pallars Sobirà
Altitud 954 m
Data alta 11.01.2018
Estat actual Operativa
Dades de període
Període
TU
TM
°C
TX
°C
TN
°C
HRM
%
PPT
mm
VVM (6 m)
km/h
DVM (6 m)
graus
VVX (6 m)
km/h
PM
hPa
00:00 - 00:30 14.3 14.8 14.0 76 0.0 2.2 55 6.1 1015.5
00:30 - 01:00 13.8 14.0 13.5 79 0.0 1.4 8 5.8 1015.5
01:00 - 01:30 13.3 13.7 12.8 81 0.0 0.7 6 4.3 1015.5
01:30 - 02:00 13.0 13.4 12.8 82 0.0 2.5 26 7.9 1015.4
02:00 - 02:30 12.6 12.8 12.3 84 0.0 1.4 97 6.1 1015.3
02:30 - 03:00 12.3 12.6 11.9 84 0.0 0.7 62 3.6 1015.3
03:00 - 03:30 11.9 12.1 11.7 86 0.0 0.4 69 2.9 1015.5
03:30 - 04:00 11.7 12.0 11.4 86 0.0 1.4 15 5.4 1015.6
04:00 - 04:30 11.3 11.4 11.3 87 0.0 0.7 152 4.0 1015.8
04:30 - 05:00 11.1 11.3 10.9 88 0.0 0.7 6 2.9 1015.8
05:00 - 05:30 11.1 11.2 11.0 88 0.0 0.4 125 1.8 1015.8
05:30 - 06:00 11.2 11.4 11.1 88 0.0 0.7 348 2.9 1015.8
06:00 - 06:30 11.9 12.3 11.5 86 0.0 0.4 136 2.5 1015.5
06:30 - 07:00 13.2 14.5 12.4 81 0.0 0.4 340 2.9 1015.0
07:00 - 07:30 14.9 15.5 14.4 75 0.0 1.1 329 4.7 1014.2
07:30 - 08:00 15.4 16.2 14.8 71 0.0 2.5 279 8.3 1013.8
08:00 - 08:30 16.7 17.4 16.3 65 0.0 1.4 199 6.5 1013.1
08:30 - 09:00 18.1 18.6 17.4 61 0.0 4.0 209 9.4 1012.2
09:00 - 09:30 19.4 20.8 18.5 55 0.0 3.6 216 8.6 1011.5
09:30 - 10:00 21.3 21.7 20.9 51 0.0 3.2 231 9.0 1010.4
10:00 - 10:30 22.6 23.3 21.3 47 0.0 2.5 235 11.9 1009.5
10:30 - 11:00 23.9 24.5 23.3 40 0.0 7.2 242 16.6 1008.7
11:00 - 11:30 24.3 24.5 24.1 37 0.0 7.9 220 16.2 1008.3
11:30 - 12:00 24.8 25.6 24.3 34 0.0 9.0 237 21.2 1007.8
12:00 - 12:30 25.4 25.8 25.2 28 0.0 15.5 190 33.1 1007.5
12:30 - 13:00 25.5 25.8 25.1 30 0.0 11.5 192 29.5 1007.1
13:00 - 13:30 25.1 25.8 24.5 36 0.0 11.9 229 26.6 1006.7
13:30 - 14:00 25.4 25.7 24.9 35 0.0 9.7 220 23.4 1006.4
14:00 - 14:30 24.7 25.3 24.1 37 0.0 10.8 209 26.6 1006.4
14:30 - 15:00 23.5 24.1 23.2 39 0.0 9.0 198 22.7 1006.9
15:00 - 15:30 21.3 23.2 20.4 49 0.0 10.4 287 33.5 1007.9
15:30 - 16:00 20.3 20.7 20.2 53 0.0 6.1 321 22.0 1008.7
16:00 - 16:30 20.0 20.3 19.6 52 0.3 11.2 325 31.7 1009.2
16:30 - 17:00 18.5 19.6 17.3 59 0.0 15.5 289 40.7 1010.6
17:00 - 17:30 16.3 17.6 14.1 64 0.5 12.6 315 33.8 1012.3
17:30 - 18:00 14.2 15.5 13.3 75 1.0 10.1 308 27.7 1014.0
18:00 - 18:30 13.3 13.8 12.6 85 2.0 3.2 316 17.6 1015.1
18:30 - 19:00 12.5 12.6 12.4 93 0.4 9.4 20 20.5 1016.0
19:00 - 19:30 12.1 12.3 11.9 90 0.5 6.5 37 16.6 1016.7
19:30 - 20:00 12.3 12.6 11.9 91 0.0 4.0 46 14.0 1017.0
20:00 - 20:30 11.9 12.0 11.8 92 0.0 6.1 27 13.7 1017.3
20:30 - 21:00 12.1 12.3 11.9 89 0.0 7.6 15 14.8 1017.1
21:00 - 21:30 11.9 12.1 11.9 90 0.0 6.5 23 13.7 1016.8
21:30 - 22:00 12.2 12.4 11.7 88 0.0 5.0 45 14.8 1016.3
22:00 - 22:30 11.6 12.0 11.4 92 0.0 2.9 65 11.2 1016.4
22:30 - 23:00 (s/d) (s/d) (s/d) (s/d) (s/d) (s/d) (s/d) (s/d) (s/d)

Les dades en taronja només han passat un control de qualitat automàtic. Resta pendent la seva validació definitiva.